createdAt,value
2019-05-20T00:00:20.700Z,24.10
2019-05-20T00:05:39.692Z,21.93
2019-05-20T00:10:52.374Z,21.70
2019-05-20T00:16:03.507Z,21.50
2019-05-20T00:21:12.563Z,22.85
2019-05-20T00:26:42.586Z,21.27
2019-05-20T00:31:58.919Z,20.90
2019-05-20T00:37:09.210Z,21.20
2019-05-20T00:42:23.883Z,20.77
2019-05-20T00:47:31.765Z,17.57
2019-05-20T00:52:40.474Z,19.92
2019-05-20T00:57:48.992Z,17.92
2019-05-20T01:02:58.309Z,18.32
2019-05-20T01:08:07.030Z,19.77
2019-05-20T01:13:15.749Z,25.57
2019-05-20T01:18:28.881Z,22.67
2019-05-20T01:23:37.741Z,17.82
2019-05-20T01:28:46.503Z,18.20
2019-05-20T01:33:55.671Z,20.27
2019-05-20T01:39:05.965Z,23.95
2019-05-20T01:44:15.750Z,18.02
2019-05-20T01:49:26.401Z,16.97
2019-05-20T01:54:35.370Z,17.02
2019-05-20T01:59:45.064Z,15.68
2019-05-20T02:04:54.986Z,17.03
2019-05-20T02:10:03.970Z,18.00
2019-05-20T02:15:15.437Z,17.73
2019-05-20T02:20:24.678Z,16.20
2019-05-20T02:25:36.347Z,16.25
2019-05-20T02:36:18.366Z,14.95
2019-05-20T02:41:29.668Z,13.60
2019-05-20T02:46:49.047Z,15.72
2019-05-20T02:51:59.842Z,14.50
2019-05-20T02:57:09.818Z,13.58
2019-05-20T03:02:29.182Z,14.10
2019-05-20T03:07:39.725Z,13.95
2019-05-20T03:12:48.439Z,13.53
2019-05-20T03:17:56.731Z,14.38
2019-05-20T03:23:06.463Z,13.28
2019-05-20T03:28:18.160Z,18.40
2019-05-20T03:33:39.665Z,15.18
2019-05-20T03:38:48.936Z,17.15
2019-05-20T03:43:58.785Z,12.95
2019-05-20T03:49:17.601Z,13.35
2019-05-20T03:54:28.273Z,16.97
2019-05-20T03:59:37.575Z,16.57
2019-05-20T04:05:02.374Z,14.38
2019-05-20T04:10:14.103Z,15.30
2019-05-20T04:15:28.171Z,13.53
2019-05-20T04:20:35.772Z,29.37
2019-05-20T04:25:43.973Z,40.73
2019-05-20T04:30:52.711Z,23.35
2019-05-20T04:36:04.169Z,12.63
2019-05-20T04:41:15.832Z,13.78
2019-05-20T04:46:24.733Z,12.28
2019-05-20T04:51:33.188Z,11.13
2019-05-20T04:56:41.617Z,11.12
2019-05-20T05:01:50.434Z,10.70
2019-05-20T05:06:59.727Z,12.00
2019-05-20T05:12:11.621Z,9.95
2019-05-20T05:17:19.478Z,10.30
2019-05-20T05:22:28.247Z,11.28
2019-05-20T05:27:36.774Z,11.45
2019-05-20T05:32:49.264Z,12.33
2019-05-20T05:38:00.380Z,12.82
2019-05-20T05:43:09.708Z,12.45
2019-05-20T05:48:18.402Z,11.47
2019-05-20T05:53:26.866Z,12.37
2019-05-20T05:58:35.473Z,12.90
2019-05-20T06:03:44.178Z,11.23
2019-05-20T06:08:53.346Z,11.37
2019-05-20T06:14:04.975Z,11.25
2019-05-20T06:19:12.972Z,12.18
2019-05-20T06:24:25.184Z,10.85
2019-05-20T06:29:33.772Z,11.28
2019-05-20T06:34:43.199Z,10.70
2019-05-20T06:39:51.630Z,10.32
2019-05-20T06:44:59.980Z,10.23
2019-05-20T06:50:12.812Z,10.43
2019-05-20T06:55:22.061Z,9.50
2019-05-20T07:00:36.816Z,9.65
2019-05-20T07:05:50.065Z,9.90
2019-05-20T07:10:58.063Z,9.58
2019-05-20T07:16:07.251Z,10.23
2019-05-20T07:21:16.698Z,10.90
2019-05-20T07:26:28.662Z,10.38
2019-05-20T07:37:01.479Z,10.32
2019-05-20T07:47:12.063Z,10.10
2019-05-20T07:52:21.128Z,10.72
2019-05-20T07:57:31.505Z,9.93
2019-05-20T08:02:39.983Z,11.55
2019-05-20T08:07:52.440Z,13.30
2019-05-20T08:12:58.830Z,12.13
2019-05-20T08:18:25.978Z,11.63
2019-05-20T08:23:34.089Z,11.12
2019-05-20T08:28:47.259Z,12.67
2019-05-20T08:33:56.233Z,13.55
2019-05-20T08:39:09.361Z,15.03
2019-05-20T08:44:17.804Z,17.73
2019-05-20T08:49:26.610Z,24.23
2019-05-20T08:54:40.252Z,17.02
2019-05-20T08:59:47.993Z,15.85
2019-05-20T09:04:56.099Z,12.37
2019-05-20T09:10:05.008Z,12.05
2019-05-20T09:15:14.328Z,11.80
2019-05-20T09:20:23.314Z,10.85
2019-05-20T09:25:32.975Z,10.72
2019-05-20T09:30:42.521Z,9.83
2019-05-20T09:35:51.040Z,9.98
2019-05-20T09:41:00.134Z,9.33
2019-05-20T09:46:08.522Z,10.15
2019-05-20T09:51:17.190Z,9.88
2019-05-20T09:56:28.383Z,10.70
2019-05-20T10:01:39.785Z,22.47
2019-05-20T10:06:46.787Z,15.38
2019-05-20T10:11:55.498Z,14.83
2019-05-20T10:17:04.801Z,25.20
2019-05-20T10:22:13.126Z,48.13
2019-05-20T10:27:22.037Z,40.00
2019-05-20T10:32:30.786Z,20.37
2019-05-20T10:37:39.154Z,14.95
2019-05-20T10:42:47.150Z,16.13
2019-05-20T10:47:55.919Z,13.65
2019-05-20T10:53:05.427Z,12.15
2019-05-20T10:58:13.806Z,11.18
2019-05-20T11:03:22.289Z,13.35
2019-05-20T11:08:31.626Z,13.90
2019-05-20T11:13:39.736Z,14.85
2019-05-20T11:18:48.769Z,15.38
2019-05-20T11:23:57.559Z,14.43
2019-05-20T11:29:06.217Z,22.00
2019-05-20T11:34:15.785Z,15.40
2019-05-20T11:39:33.206Z,13.03
2019-05-20T11:44:35.731Z,12.13
2019-05-20T11:49:43.948Z,12.18
2019-05-20T11:54:52.487Z,12.65
2019-05-20T12:00:01.033Z,13.80
2019-05-20T12:05:10.593Z,17.77
2019-05-20T12:10:19.788Z,20.70
2019-05-20T12:15:29.013Z,19.98
2019-05-20T12:20:45.213Z,18.07
2019-05-20T12:25:53.614Z,15.88
2019-05-20T12:31:05.007Z,16.48
2019-05-20T12:36:15.379Z,15.75
2019-05-20T12:41:26.382Z,15.93
2019-05-20T12:46:35.563Z,16.17
2019-05-20T12:51:43.847Z,17.00
2019-05-20T12:56:52.506Z,17.27
2019-05-20T13:02:03.787Z,15.75
2019-05-20T13:07:12.601Z,14.98
2019-05-20T13:12:25.828Z,15.05
2019-05-20T13:17:44.893Z,14.18
2019-05-20T13:23:00.167Z,15.98
2019-05-20T13:28:07.755Z,17.30
2019-05-20T13:33:21.838Z,19.07
2019-05-20T13:38:32.591Z,18.17
2019-05-20T13:43:49.789Z,19.67
2019-05-20T13:48:59.697Z,19.50
2019-05-20T13:54:19.533Z,18.95
2019-05-20T13:59:18.147Z,20.23
2019-05-20T14:04:27.114Z,18.23
2019-05-20T14:09:36.689Z,18.30
2019-05-20T14:14:45.618Z,20.10
2019-05-20T14:19:53.607Z,21.35
2019-05-20T14:25:02.045Z,23.15
2019-05-20T14:30:12.026Z,22.75
2019-05-20T14:35:21.396Z,23.02
2019-05-20T14:40:30.351Z,22.93
2019-05-20T14:45:39.800Z,21.87
2019-05-20T14:50:47.825Z,21.02
2019-05-20T14:55:56.038Z,19.82
2019-05-20T15:01:04.185Z,19.17
2019-05-20T15:06:12.582Z,18.67
2019-05-20T15:11:35.625Z,16.60
2019-05-20T15:16:31.599Z,18.30
2019-05-20T15:21:40.463Z,18.20
2019-05-20T15:26:49.560Z,17.35
2019-05-20T15:31:57.897Z,16.42
2019-05-20T15:37:06.928Z,16.52
2019-05-20T15:42:14.846Z,16.52
2019-05-20T15:47:26.654Z,16.05
2019-05-20T15:52:36.573Z,15.75
2019-05-20T16:02:53.684Z,13.48
2019-05-20T16:08:04.063Z,14.43
2019-05-20T16:13:12.608Z,14.63
2019-05-20T16:18:21.732Z,13.77
2019-05-20T16:23:30.464Z,13.65
2019-05-20T16:28:39.267Z,14.45
2019-05-20T16:33:47.297Z,14.35
2019-05-20T16:38:55.665Z,13.32
2019-05-20T16:44:05.891Z,13.50
2019-05-20T16:49:14.727Z,13.90
2019-05-20T16:54:25.046Z,12.80
2019-05-20T16:59:33.751Z,12.35
2019-05-20T17:04:41.987Z,12.93
2019-05-20T17:09:50.419Z,12.35
2019-05-20T17:14:59.769Z,12.28
2019-05-20T17:20:10.012Z,12.78
2019-05-20T17:25:22.645Z,11.70
2019-05-20T17:30:44.431Z,11.33
2019-05-20T17:35:41.104Z,11.95
2019-05-20T17:40:49.051Z,11.75
2019-05-20T17:45:57.532Z,11.57
2019-05-20T17:51:06.450Z,11.70
2019-05-20T17:56:15.203Z,11.85
2019-05-20T18:01:26.158Z,12.10
2019-05-20T18:06:34.406Z,12.18
2019-05-20T18:11:42.697Z,12.53
2019-05-20T18:17:14.102Z,10.78
2019-05-20T18:22:22.700Z,11.78
2019-05-20T18:27:31.532Z,11.48
2019-05-20T18:32:39.932Z,12.37
2019-05-20T18:37:48.410Z,13.13
2019-05-20T18:42:57.291Z,12.45
2019-05-20T18:48:05.739Z,12.35
2019-05-20T18:53:18.201Z,12.70
2019-05-20T18:58:26.412Z,13.43
2019-05-20T19:03:38.233Z,13.50
2019-05-20T19:08:47.068Z,14.28
2019-05-20T19:13:55.835Z,13.83
2019-05-20T19:19:04.646Z,14.23
2019-05-20T19:24:13.229Z,14.20
2019-05-20T19:29:21.406Z,14.50
2019-05-20T19:34:30.775Z,13.58
2019-05-20T19:40:00.435Z,13.32
2019-05-20T19:45:09.825Z,12.95
2019-05-20T19:50:20.958Z,12.98
2019-05-20T19:55:30.088Z,12.95
2019-05-20T20:00:39.277Z,12.78
2019-05-20T20:05:48.789Z,13.65
2019-05-20T20:10:57.814Z,14.07
2019-05-20T20:16:08.094Z,14.03
2019-05-20T20:21:16.446Z,14.20
2019-05-20T20:26:24.960Z,14.87
2019-05-20T20:31:33.536Z,14.23
2019-05-20T20:36:42.174Z,14.13
2019-05-20T20:41:51.233Z,14.75
2019-05-20T20:46:59.216Z,14.63
2019-05-20T20:52:08.193Z,14.55
2019-05-20T20:57:16.331Z,14.80
2019-05-20T21:02:24.133Z,14.90
2019-05-20T21:07:32.699Z,15.88
2019-05-20T21:12:40.892Z,16.02
2019-05-20T21:17:49.598Z,15.45
2019-05-20T21:23:02.605Z,15.85
2019-05-20T21:28:11.449Z,16.10
2019-05-20T21:33:19.766Z,15.48
2019-05-20T21:38:28.620Z,15.53
2019-05-20T21:43:36.819Z,15.45
2019-05-20T21:48:45.225Z,16.62
2019-05-20T21:53:53.816Z,16.27
2019-05-20T21:59:04.640Z,16.48
2019-05-20T22:04:12.412Z,22.20
2019-05-20T22:09:21.746Z,21.02
2019-05-20T22:14:34.267Z,18.65
2019-05-20T22:19:43.661Z,21.25
2019-05-20T22:24:53.109Z,33.05
2019-05-20T22:30:05.255Z,30.27
2019-05-20T22:35:14.820Z,27.52
2019-05-20T22:40:23.950Z,26.40
2019-05-20T22:45:33.004Z,33.33
2019-05-20T22:50:44.380Z,27.82
2019-05-20T22:55:53.067Z,31.85
2019-05-20T23:01:01.560Z,33.88
2019-05-20T23:06:32.562Z,25.77
2019-05-20T23:11:40.900Z,26.80
2019-05-20T23:16:49.421Z,35.33
2019-05-20T23:21:59.411Z,28.95
2019-05-20T23:27:10.014Z,24.17
2019-05-20T23:32:24.987Z,23.38
2019-05-20T23:37:37.073Z,23.02
2019-05-20T23:42:57.398Z,21.65
2019-05-20T23:48:06.204Z,18.10
2019-05-20T23:53:14.455Z,19.07
2019-05-20T23:58:23.095Z,18.87
